Time,TemperatureF,DewpointF,PressureIn,WindDirection,WindDirectionDegrees,WindSpeedMPH,WindSpeedGustMPH,Humidity,HourlyPrecipIn,Conditions,Clouds,dailyrainin,SoftwareType,DateUTC
2013-09-22 00:01:00,39.7,23.5,0.00,East,79,21.0,-999.0,51,0.00,,,-99.99,,2013-09-22 08:01:00,
2013-09-22 00:06:00,39.7,23.3,0.00,East,82,26.0,-999.0,51,0.00,,,-99.99,,2013-09-22 08:06:00,
2013-09-22 00:11:00,39.9,23.4,0.00,ESE,123,4.7,-999.0,51,0.00,,,-99.99,,2013-09-22 08:11:00,
2013-09-22 00:16:00,40.2,22.8,0.00,East,81,23.3,-999.0,49,0.00,,,-99.99,,2013-09-22 08:16:00,
2013-09-22 00:21:00,40.0,24.0,0.00,NE,55,12.7,-999.0,52,0.00,,,-99.99,,2013-09-22 08:21:00,
2013-09-22 00:26:00,39.9,23.7,0.00,East,92,22.2,-999.0,51,0.00,,,-99.99,,2013-09-22 08:26:00,
2013-09-22 00:31:00,39.8,23.1,0.00,East,95,26.9,-999.0,50,0.00,,,-99.99,,2013-09-22 08:31:00,
2013-09-22 00:36:00,40.0,23.1,0.00,East,89,26.4,-999.0,50,0.00,,,-99.99,,2013-09-22 08:36:00,
2013-09-22 00:41:00,39.7,23.0,0.00,East,100,21.5,-999.0,50,0.00,,,-99.99,,2013-09-22 08:41:00,
2013-09-22 00:46:00,39.6,21.8,0.00,ENE,65,17.7,-999.0,48,0.00,,,-99.99,,2013-09-22 08:46:00,
2013-09-22 00:51:00,39.9,21.9,0.00,East,89,16.8,-999.0,48,0.00,,,-99.99,,2013-09-22 08:51:00,
2013-09-22 00:56:00,39.9,21.4,0.00,ENE,71,28.1,-999.0,47,0.00,,,-99.99,,2013-09-22 08:56:00,
2013-09-22 01:01:00,40.0,22.1,0.00,ESE,114,10.4,-999.0,48,0.00,,,-99.99,,2013-09-22 09:01:00,
2013-09-22 01:06:00,40.0,21.6,0.00,ESE,116,12.1,-999.0,47,0.00,,,-99.99,,2013-09-22 09:06:00,
2013-09-22 01:11:00,39.7,23.1,0.00,East,88,24.1,-999.0,51,0.00,,,-99.99,,2013-09-22 09:11:00,
2013-09-22 01:16:00,39.2,24.4,0.00,ENE,69,18.7,-999.0,54,0.00,,,-99.99,,2013-09-22 09:16:00,
2013-09-22 01:21:00,39.3,23.5,0.00,East,96,28.9,-999.0,52,0.00,,,-99.99,,2013-09-22 09:21:00,
2013-09-22 01:26:00,39.1,23.6,0.00,East,97,21.7,-999.0,53,0.00,,,-99.99,,2013-09-22 09:26:00,
2013-09-22 01:32:00,39.2,23.7,0.00,ENE,63,25.2,-999.0,53,0.00,,,-99.99,,2013-09-22 09:32:00,
2013-09-22 01:37:00,39.5,23.6,0.00,ESE,109,12.9,-999.0,52,0.00,,,-99.99,,2013-09-22 09:37:00,
2013-09-22 01:42:00,39.0,24.0,0.00,ESE,103,15.3,-999.0,54,0.00,,,-99.99,,2013-09-22 09:42:00,
2013-09-22 01:48:00,38.8,23.8,0.00,ENE,77,14.7,-999.0,54,0.00,,,-99.99,,2013-09-22 09:48:00,
2013-09-22 01:53:00,38.6,24.3,0.00,East,88,27.0,-999.0,56,0.00,,,-99.99,,2013-09-22 09:53:00,
2013-09-22 01:58:00,38.5,24.4,0.00,East,95,20.9,-999.0,56,0.00,,,-99.99,,2013-09-22 09:58:00,
2013-09-22 02:03:00,38.4,24.0,0.00,NE,49,8.8,-999.0,55,0.00,,,-99.99,,2013-09-22 10:03:00,
2013-09-22 02:08:00,38.4,24.1,0.00,East,86,26.5,-999.0,56,0.00,,,-99.99,,2013-09-22 10:08:00,
2013-09-22 02:13:00,38.3,24.4,0.00,East,90,33.5,-999.0,56,0.00,,,-99.99,,2013-09-22 10:13:00,
2013-09-22 02:18:00,38.3,24.4,0.00,ENE,70,31.9,-999.0,56,0.00,,,-99.99,,2013-09-22 10:18:00,
2013-09-22 02:23:00,38.3,24.6,0.00,ENE,64,25.6,-999.0,57,0.00,,,-99.99,,2013-09-22 10:23:00,
2013-09-22 02:28:00,38.2,24.5,0.00,ENE,77,30.0,-999.0,57,0.00,,,-99.99,,2013-09-22 10:28:00,
2013-09-22 02:33:00,38.2,24.4,0.00,SE,125,24.9,-999.0,57,0.01,,,-99.99,,2013-09-22 10:33:00,
2013-09-22 02:38:00,38.2,24.1,0.00,ESE,121,10.0,-999.0,56,0.00,,,-99.99,,2013-09-22 10:38:00,
2013-09-22 02:43:00,38.5,22.8,0.00,ESE,110,26.1,-999.0,52,0.00,,,-99.99,,2013-09-22 10:43:00,
2013-09-22 02:48:00,38.7,23.4,0.00,ENE,76,11.6,-999.0,53,0.00,,,-99.99,,2013-09-22 10:48:00,
2013-09-22 02:53:00,38.7,22.2,0.00,ENE,74,19.4,-999.0,51,0.00,,,-99.99,,2013-09-22 10:53:00,
2013-09-22 02:58:00,38.6,22.5,0.00,East,85,24.6,-999.0,52,0.00,,,-99.99,,2013-09-22 10:58:00,
2013-09-22 03:03:00,38.5,21.8,0.00,East,87,16.4,-999.0,50,0.00,,,-99.99,,2013-09-22 11:03:00,
2013-09-22 03:08:00,38.9,22.4,0.00,ESE,104,13.6,-999.0,51,0.00,,,-99.99,,2013-09-22 11:08:00,
2013-09-22 03:13:00,38.1,23.2,0.00,ENE,72,17.9,-999.0,54,0.00,,,-99.99,,2013-09-22 11:13:00,
2013-09-22 03:18:00,38.2,22.7,0.00,East,83,36.5,-999.0,53,0.00,,,-99.99,,2013-09-22 11:18:00,
2013-09-22 03:23:00,38.0,23.2,0.00,ENE,78,38.5,-999.0,54,0.00,,,-99.99,,2013-09-22 11:23:00,
2013-09-22 03:28:00,37.6,23.7,0.00,ENE,60,28.8,-999.0,56,0.01,,,-99.99,,2013-09-22 11:28:00,
2013-09-22 03:33:00,37.8,23.7,0.00,ENE,60,13.6,-999.0,56,0.00,,,-99.99,,2013-09-22 11:33:00,
2013-09-22 03:38:00,37.4,23.7,0.00,East,85,19.7,-999.0,57,0.00,,,-99.99,,2013-09-22 11:38:00,
2013-09-22 03:44:00,38.0,22.1,0.00,East,89,30.4,-999.0,52,0.00,,,-99.99,,2013-09-22 11:44:00,
2013-09-22 03:49:00,38.4,21.9,0.00,East,92,43.6,-999.0,51,0.00,,,-99.99,,2013-09-22 11:49:00,
2013-09-22 03:54:00,38.0,22.8,0.00,ENE,78,31.0,-999.0,53,0.00,,,-99.99,,2013-09-22 11:54:00,
2013-09-22 03:59:00,37.6,22.6,0.00,ENE,65,29.5,-999.0,54,0.00,,,-99.99,,2013-09-22 11:59:00,
2013-09-22 04:04:00,37.7,22.5,0.00,East,80,18.0,-999.0,53,0.00,,,-99.99,,2013-09-22 12:04:00,
2013-09-22 04:09:00,38.1,22.1,0.00,East,82,21.4,-999.0,52,0.00,,,-99.99,,2013-09-22 12:09:00,
2013-09-22 04:14:00,38.1,21.3,0.00,East,97,41.7,-999.0,50,0.00,,,-99.99,,2013-09-22 12:14:00,
2013-09-22 04:19:00,37.7,21.7,0.00,East,90,22.1,-999.0,51,0.00,,,-99.99,,2013-09-22 12:19:00,
2013-09-22 04:24:00,37.8,22.2,0.00,ENE,67,22.6,-999.0,53,0.00,,,-99.99,,2013-09-22 12:24:00,
2013-09-22 04:29:00,37.0,22.7,0.00,ESE,111,12.4,-999.0,55,0.00,,,-99.99,,2013-09-22 12:29:00,
2013-09-22 04:34:00,36.9,22.0,0.00,East,90,28.1,-999.0,54,0.00,,,-99.99,,2013-09-22 12:34:00,
2013-09-22 04:39:00,37.0,20.1,0.00,East,90,41.5,-999.0,50,0.04,,,-99.99,,2013-09-22 12:39:00,
2013-09-22 04:44:00,36.9,22.3,0.00,ESE,116,25.7,-999.0,54,0.00,,,-99.99,,2013-09-22 12:44:00,
2013-09-22 04:49:00,36.7,21.7,0.00,ESE,102,17.6,-999.0,54,0.00,,,-99.99,,2013-09-22 12:49:00,
2013-09-22 04:54:00,36.8,21.4,0.00,SSE,162,23.5,-999.0,53,0.14,,,-99.99,,2013-09-22 12:54:00,
2013-09-22 04:59:00,36.9,20.0,0.00,ENE,66,37.8,-999.0,49,0.00,,,-99.99,,2013-09-22 12:59:00,
2013-09-22 05:04:00,36.6,20.9,0.00,ESE,102,32.0,-999.0,52,0.01,,,-99.99,,2013-09-22 13:04:00,
2013-09-22 05:09:00,36.2,20.4,0.00,ENE,78,48.5,-999.0,52,0.16,,,-99.99,,2013-09-22 13:09:00,
2013-09-22 05:14:00,36.7,20.4,0.00,ESE,117,18.3,-999.0,51,0.00,,,-99.99,,2013-09-22 13:14:00,
2013-09-22 05:19:00,37.2,18.0,0.00,East,95,32.0,-999.0,45,0.01,,,-99.99,,2013-09-22 13:19:00,
2013-09-22 05:24:00,36.2,19.3,0.00,East,87,27.0,-999.0,49,0.00,,,-99.99,,2013-09-22 13:24:00,
2013-09-22 05:29:00,35.8,19.8,0.00,East,84,40.1,-999.0,51,0.01,,,-99.99,,2013-09-22 13:29:00,
2013-09-22 05:34:00,35.5,19.5,0.00,East,82,35.2,-999.0,51,0.01,,,-99.99,,2013-09-22 13:34:00,
2013-09-22 05:39:00,35.3,19.4,0.00,East,85,42.6,-999.0,52,0.05,,,-99.99,,2013-09-22 13:39:00,
2013-09-22 05:44:00,35.2,19.8,0.00,East,88,27.7,-999.0,53,0.00,,,-99.99,,2013-09-22 13:44:00,
2013-09-22 05:49:00,35.0,19.7,0.00,East,97,21.4,-999.0,53,0.18,,,-99.99,,2013-09-22 13:49:00,
2013-09-22 05:54:00,34.8,19.6,0.00,East,88,45.1,-999.0,53,0.02,,,-99.99,,2013-09-22 13:54:00,
2013-09-22 05:59:00,34.9,19.6,0.00,ESE,117,23.5,-999.0,53,0.04,,,-99.99,,2013-09-22 13:59:00,
2013-09-22 06:04:00,34.7,19.9,0.00,NE,56,31.6,-999.0,54,0.05,,,-99.99,,2013-09-22 14:04:00,
2013-09-22 06:09:00,34.6,20.1,0.00,East,81,35.9,-999.0,55,0.04,,,-99.99,,2013-09-22 14:09:00,
2013-09-22 06:14:00,34.3,21.0,0.00,East,92,27.7,-999.0,57,0.07,,,-99.99,,2013-09-22 14:14:00,
2013-09-22 06:19:00,34.0,21.0,0.00,ENE,71,38.7,-999.0,58,0.00,,,-99.99,,2013-09-22 14:19:00,
2013-09-22 06:24:00,33.9,21.1,0.00,East,84,47.1,-999.0,59,0.03,,,-99.99,,2013-09-22 14:24:00,
2013-09-22 06:29:00,34.3,20.5,0.00,East,89,39.4,-999.0,56,0.15,,,-99.99,,2013-09-22 14:29:00,
2013-09-22 06:34:00,34.1,20.2,0.00,ESE,118,30.9,-999.0,56,0.01,,,-99.99,,2013-09-22 14:34:00,
2013-09-22 06:39:00,34.9,19.3,0.00,ESE,118,29.8,-999.0,52,0.00,,,-99.99,,2013-09-22 14:39:00,
2013-09-22 06:44:00,34.7,20.0,0.00,East,82,31.5,-999.0,54,0.00,,,-99.99,,2013-09-22 14:44:00,
2013-09-22 06:49:00,34.4,19.9,0.00,SSE,150,21.7,-999.0,54,0.19,,,-99.99,,2013-09-22 14:49:00,
2013-09-22 06:54:00,34.4,18.7,0.00,ESE,112,40.9,-999.0,52,0.02,,,-99.99,,2013-09-22 14:54:00,
2013-09-22 06:59:00,34.4,18.5,0.00,East,89,39.8,-999.0,51,0.06,,,-99.99,,2013-09-22 14:59:00,
2013-09-22 07:04:00,34.1,17.8,0.00,East,82,43.8,-999.0,50,0.01,,,-99.99,,2013-09-22 15:04:00,
2013-09-22 07:09:00,34.4,18.1,0.00,ESE,104,25.7,-999.0,51,0.00,,,-99.99,,2013-09-22 15:09:00,
2013-09-22 07:14:00,34.4,17.9,0.00,ESE,108,28.5,-999.0,50,0.08,,,-99.99,,2013-09-22 15:14:00,
2013-09-22 07:19:00,34.7,16.7,0.00,East,100,22.9,-999.0,47,0.00,,,-99.99,,2013-09-22 15:19:00,
2013-09-22 07:24:00,34.5,16.1,0.00,East,91,35.6,-999.0,46,0.18,,,-99.99,,2013-09-22 15:24:00,
2013-09-22 07:29:00,34.6,16.6,0.00,ESE,112,23.9,-999.0,47,0.00,,,-99.99,,2013-09-22 15:29:00,
2013-09-22 07:35:00,34.2,17.8,0.00,ESE,122,18.4,-999.0,50,0.00,,,-99.99,,2013-09-22 15:35:00,
2013-09-22 07:40:00,33.8,17.2,0.00,ESE,103,20.8,-999.0,50,0.03,,,-99.99,,2013-09-22 15:40:00,
2013-09-22 07:45:00,34.2,17.4,0.00,ESE,112,17.0,-999.0,49,0.00,,,-99.99,,2013-09-22 15:45:00,
2013-09-22 07:50:00,34.1,18.4,0.00,ESE,119,22.0,-999.0,52,0.00,,,-99.99,,2013-09-22 15:50:00,
2013-09-22 07:55:00,33.2,19.0,0.00,East,101,32.7,-999.0,55,0.01,,,-99.99,,2013-09-22 15:55:00,
2013-09-22 08:00:00,33.3,18.9,0.00,ESE,117,19.3,-999.0,55,0.00,,,-99.99,,2013-09-22 16:00:00,
2013-09-22 08:05:00,32.9,19.5,0.00,ENE,76,20.1,-999.0,57,0.00,,,-99.99,,2013-09-22 16:05:00,
2013-09-22 08:10:00,33.3,19.5,0.00,ENE,62,16.3,-999.0,56,0.02,,,-99.99,,2013-09-22 16:10:00,
2013-09-22 08:15:00,33.3,19.2,0.00,ESE,123,19.1,-999.0,55,0.01,,,-99.99,,2013-09-22 16:15:00,
2013-09-22 08:20:00,33.3,19.0,0.00,East,88,27.5,-999.0,55,0.01,,,-99.99,,2013-09-22 16:20:00,
2013-09-22 08:25:00,33.5,18.3,0.00,ENE,66,36.5,-999.0,53,0.02,,,-99.99,,2013-09-22 16:25:00,
2013-09-22 08:30:00,32.9,19.3,0.00,East,83,25.2,-999.0,56,0.02,,,-99.99,,2013-09-22 16:30:00,
2013-09-22 08:35:00,33.0,19.5,0.00,East,85,45.7,-999.0,57,0.04,,,-99.99,,2013-09-22 16:35:00,
2013-09-22 08:40:00,33.0,19.6,0.00,East,90,31.0,-999.0,57,0.00,,,-99.99,,2013-09-22 16:40:00,
2013-09-22 08:46:00,33.0,19.1,0.00,ENE,61,43.2,-999.0,56,0.08,,,-99.99,,2013-09-22 16:46:00,
2013-09-22 08:51:00,32.8,19.6,0.00,East,96,41.1,-999.0,57,0.14,,,-99.99,,2013-09-22 16:51:00,
2013-09-22 08:57:00,32.7,19.7,0.00,ENE,78,31.1,-999.0,58,0.11,,,-99.99,,2013-09-22 16:57:00,
2013-09-22 09:02:00,33.0,19.4,0.00,SE,133,18.6,-999.0,56,0.00,,,-99.99,,2013-09-22 17:02:00,
2013-09-22 09:07:00,32.8,19.5,0.00,SE,138,20.6,-999.0,57,0.00,,,-99.99,,2013-09-22 17:07:00,
2013-09-22 09:12:00,33.0,19.6,0.00,East,96,16.7,-999.0,57,0.01,,,-99.99,,2013-09-22 17:12:00,
2013-09-22 09:17:00,32.9,19.6,0.00,SSE,162,13.1,-999.0,57,0.00,,,-99.99,,2013-09-22 17:17:00,
2013-09-22 09:22:00,33.3,19.5,0.00,ENE,76,41.0,-999.0,56,0.06,,,-99.99,,2013-09-22 17:22:00,
2013-09-22 09:27:00,33.3,19.3,0.00,East,82,27.8,-999.0,55,0.02,,,-99.99,,2013-09-22 17:27:00,
2013-09-22 09:32:00,33.4,19.0,0.00,East,89,37.4,-999.0,55,0.12,,,-99.99,,2013-09-22 17:32:00,
2013-09-22 09:38:00,33.2,18.9,0.00,ENE,68,36.1,-999.0,55,0.10,,,-99.99,,2013-09-22 17:38:00,
2013-09-22 09:43:00,33.3,18.4,0.00,ENE,73,36.5,-999.0,53,0.12,,,-99.99,,2013-09-22 17:43:00,
2013-09-22 09:48:00,33.5,18.6,0.00,East,100,34.5,-999.0,53,0.02,,,-99.99,,2013-09-22 17:48:00,
2013-09-22 09:53:00,33.5,18.7,0.00,ENE,69,34.9,-999.0,53,0.01,,,-99.99,,2013-09-22 17:53:00,
2013-09-22 09:59:00,33.3,18.4,0.00,ENE,74,47.0,-999.0,53,0.04,,,-99.99,,2013-09-22 17:59:00,
2013-09-22 10:04:00,33.5,18.7,0.00,East,85,25.0,-999.0,54,0.00,,,-99.99,,2013-09-22 18:04:00,
2013-09-22 10:09:00,33.8,18.5,0.00,East,84,43.3,-999.0,53,0.17,,,-99.99,,2013-09-22 18:09:00,
2013-09-22 10:14:00,33.9,18.2,0.00,East,96,39.4,-999.0,52,0.00,,,-99.99,,2013-09-22 18:14:00,
2013-09-22 10:19:00,33.7,18.1,0.00,East,86,35.5,-999.0,52,0.09,,,-99.99,,2013-09-22 18:19:00,
2013-09-22 10:24:00,33.8,19.1,0.00,ENE,71,27.4,-999.0,54,0.07,,,-99.99,,2013-09-22 18:24:00,
2013-09-22 10:29:00,33.7,18.7,0.00,East,101,24.9,-999.0,53,0.00,,,-99.99,,2013-09-22 18:29:00,
2013-09-22 10:34:00,33.8,19.0,0.00,ENE,77,28.7,-999.0,54,0.09,,,-99.99,,2013-09-22 18:34:00,
2013-09-22 10:39:00,33.8,19.4,0.00,NE,49,18.2,-999.0,55,0.00,,,-99.99,,2013-09-22 18:39:00,
2013-09-22 10:44:00,33.8,18.9,0.00,ENE,68,37.7,-999.0,53,0.00,,,-99.99,,2013-09-22 18:44:00,
2013-09-22 10:49:00,34.0,19.3,0.00,East,83,29.5,-999.0,54,0.00,,,-99.99,,2013-09-22 18:49:00,
2013-09-22 10:54:00,34.2,19.6,0.00,East,80,36.6,-999.0,54,0.10,,,-99.99,,2013-09-22 18:54:00,
2013-09-22 10:59:00,34.3,19.9,0.00,East,86,12.4,-999.0,55,0.00,,,-99.99,,2013-09-22 18:59:00,
2013-09-22 11:04:00,34.3,19.4,0.00,East,84,36.1,-999.0,53,0.04,,,-99.99,,2013-09-22 19:04:00,
2013-09-22 11:09:00,34.5,19.4,0.00,East,89,24.9,-999.0,53,0.00,,,-99.99,,2013-09-22 19:09:00,
2013-09-22 11:14:00,34.7,19.3,0.00,East,88,42.9,-999.0,52,0.04,,,-99.99,,2013-09-22 19:14:00,
2013-09-22 11:19:00,34.8,19.4,0.00,ESE,113,16.0,-999.0,53,0.01,,,-99.99,,2013-09-22 19:19:00,
2013-09-22 11:24:00,35.2,19.6,0.00,ENE,73,27.3,-999.0,52,0.02,,,-99.99,,2013-09-22 19:24:00,
2013-09-22 11:29:00,35.3,18.7,0.00,ENE,61,19.3,-999.0,50,0.00,,,-99.99,,2013-09-22 19:29:00,
2013-09-22 11:34:00,35.3,19.2,0.00,ENE,72,22.8,-999.0,51,0.00,,,-99.99,,2013-09-22 19:34:00,
2013-09-22 11:39:00,35.8,17.5,0.00,ESE,103,11.8,-999.0,47,0.00,,,-99.99,,2013-09-22 19:39:00,
2013-09-22 11:44:00,36.2,16.3,0.00,ENE,60,23.2,-999.0,43,0.00,,,-99.99,,2013-09-22 19:44:00,
2013-09-22 11:49:00,36.2,15.8,0.00,ESE,102,13.6,-999.0,42,0.00,,,-99.99,,2013-09-22 19:49:00,
2013-09-22 11:54:00,36.4,14.7,0.00,East,88,38.5,-999.0,40,0.07,,,-99.99,,2013-09-22 19:54:00,
2013-09-22 12:00:00,36.4,14.1,0.00,SE,130,36.8,-999.0,39,0.04,,,-99.99,,2013-09-22 20:00:00,
2013-09-22 12:05:00,36.4,15.2,0.00,NE,50,37.9,-999.0,41,0.06,,,-99.99,,2013-09-22 20:05:00,
2013-09-22 12:11:00,36.7,14.1,0.00,ENE,59,24.9,-999.0,38,0.00,,,-99.99,,2013-09-22 20:11:00,
2013-09-22 12:16:00,36.9,14.7,0.00,East,83,43.9,-999.0,39,0.00,,,-99.99,,2013-09-22 20:16:00,
2013-09-22 12:21:00,37.1,15.2,0.00,NE,55,6.6,-999.0,40,0.00,,,-99.99,,2013-09-22 20:21:00,
2013-09-22 12:26:00,37.3,14.9,0.00,East,88,13.5,-999.0,39,0.00,,,-99.99,,2013-09-22 20:26:00,
2013-09-22 12:32:00,37.2,15.2,0.00,ENE,60,30.1,-999.0,40,0.01,,,-99.99,,2013-09-22 20:32:00,
2013-09-22 12:38:00,37.0,14.5,0.00,ESE,105,22.3,-999.0,39,0.00,,,-99.99,,2013-09-22 20:38:00,
2013-09-22 12:43:00,37.2,15.3,0.00,East,80,28.6,-999.0,40,0.00,,,-99.99,,2013-09-22 20:43:00,
2013-09-22 12:48:00,37.5,15.1,0.00,NNE,12,22.0,-999.0,39,0.00,,,-99.99,,2013-09-22 20:48:00,
2013-09-22 12:53:00,37.4,16.2,0.00,East,92,29.9,-999.0,41,0.00,,,-99.99,,2013-09-22 20:53:00,
2013-09-22 12:58:00,37.7,15.8,0.00,ENE,62,52.2,-999.0,40,0.01,,,-99.99,,2013-09-22 20:58:00,
2013-09-22 13:03:00,37.7,16.1,0.00,East,82,29.9,-999.0,41,0.00,,,-99.99,,2013-09-22 21:03:00,
2013-09-22 13:08:00,38.0,16.2,0.00,East,79,29.5,-999.0,40,0.00,,,-99.99,,2013-09-22 21:08:00,
2013-09-22 13:13:00,38.3,16.5,0.00,ENE,70,10.7,-999.0,40,0.00,,,-99.99,,2013-09-22 21:13:00,
2013-09-22 13:18:00,38.0,16.8,0.00,ENE,58,34.6,-999.0,41,0.00,,,-99.99,,2013-09-22 21:18:00,
2013-09-22 13:23:00,37.8,17.4,0.00,East,93,29.9,-999.0,43,0.00,,,-99.99,,2013-09-22 21:23:00,
2013-09-22 13:28:00,38.4,17.0,0.00,ENE,61,28.0,-999.0,41,0.03,,,-99.99,,2013-09-22 21:28:00,
2013-09-22 13:33:00,38.4,16.3,0.00,East,82,25.6,-999.0,40,0.00,,,-99.99,,2013-09-22 21:33:00,
2013-09-22 13:38:00,38.3,15.6,0.00,East,94,20.2,-999.0,39,0.00,,,-99.99,,2013-09-22 21:38:00,
2013-09-22 13:43:00,37.8,17.4,0.00,ENE,61,29.1,-999.0,43,0.00,,,-99.99,,2013-09-22 21:43:00,
2013-09-22 13:48:00,38.3,17.7,0.00,East,93,22.9,-999.0,42,0.00,,,-99.99,,2013-09-22 21:48:00,
2013-09-22 13:53:00,38.2,16.5,0.00,NE,43,14.2,-999.0,40,0.00,,,-99.99,,2013-09-22 21:53:00,
2013-09-22 13:58:00,38.4,15.1,0.00,East,79,41.0,-999.0,38,0.02,,,-99.99,,2013-09-22 21:58:00,
2013-09-22 14:03:00,38.2,16.7,0.00,NE,34,13.7,-999.0,41,0.00,,,-99.99,,2013-09-22 22:03:00,
2013-09-22 14:08:00,38.1,16.2,0.00,ENE,73,34.7,-999.0,40,0.01,,,-99.99,,2013-09-22 22:08:00,
2013-09-22 14:14:00,38.4,15.4,0.00,ENE,64,40.4,-999.0,38,0.02,,,-99.99,,2013-09-22 22:14:00,
2013-09-22 14:20:00,38.7,16.7,0.00,East,91,39.4,-999.0,40,0.01,,,-99.99,,2013-09-22 22:20:00,
2013-09-22 14:25:00,38.9,16.7,0.00,ESE,102,27.6,-999.0,40,0.00,,,-99.99,,2013-09-22 22:25:00,
2013-09-22 14:30:00,39.0,15.8,0.00,East,97,50.6,-999.0,38,0.01,,,-99.99,,2013-09-22 22:30:00,
2013-09-22 14:35:00,38.7,15.6,0.00,East,83,31.0,-999.0,38,0.00,,,-99.99,,2013-09-22 22:35:00,
2013-09-22 14:40:00,38.9,15.6,0.00,ENE,63,24.9,-999.0,38,0.00,,,-99.99,,2013-09-22 22:40:00,
2013-09-22 14:45:00,38.7,15.5,0.00,East,91,27.8,-999.0,38,0.00,,,-99.99,,2013-09-22 22:45:00,
2013-09-22 14:50:00,38.6,16.3,0.00,East,79,35.5,-999.0,39,0.00,,,-99.99,,2013-09-22 22:50:00,
2013-09-22 14:55:00,38.1,17.2,0.00,East,90,24.8,-999.0,42,0.00,,,-99.99,,2013-09-22 22:55:00,
2013-09-22 15:00:00,38.3,18.0,0.00,East,92,27.4,-999.0,43,0.03,,,-99.99,,2013-09-22 23:00:00,
2013-09-22 15:05:00,38.1,19.0,0.00,East,90,26.4,-999.0,45,0.00,,,-99.99,,2013-09-22 23:05:00,
2013-09-22 15:10:00,38.1,20.0,0.00,ESE,108,26.3,-999.0,47,0.00,,,-99.99,,2013-09-22 23:10:00,
2013-09-22 15:15:00,38.3,19.2,0.00,ESE,107,23.1,-999.0,45,0.00,,,-99.99,,2013-09-22 23:15:00,
2013-09-22 15:20:00,38.9,19.0,0.00,East,98,20.3,-999.0,44,0.00,,,-99.99,,2013-09-22 23:20:00,
2013-09-22 15:25:00,38.9,18.3,0.00,ENE,75,28.8,-999.0,42,0.00,,,-99.99,,2013-09-22 23:25:00,
2013-09-22 15:30:00,38.9,17.8,0.00,East,88,26.6,-999.0,42,0.00,,,-99.99,,2013-09-22 23:30:00,
2013-09-22 15:35:00,39.1,15.9,0.00,East,85,42.4,-999.0,38,0.01,,,-99.99,,2013-09-22 23:35:00,
2013-09-22 15:40:00,39.3,16.2,0.00,East,89,46.3,-999.0,38,0.15,,,-99.99,,2013-09-22 23:40:00,
2013-09-22 15:45:00,39.2,16.5,0.00,East,91,16.9,-999.0,39,0.13,,,-99.99,,2013-09-22 23:45:00,
2013-09-22 15:50:00,39.4,17.3,0.00,East,87,44.2,-999.0,40,0.04,,,-99.99,,2013-09-22 23:50:00,
2013-09-22 15:55:00,38.9,17.0,0.00,ENE,77,35.8,-999.0,40,0.06,,,-99.99,,2013-09-22 23:55:00,
2013-09-22 16:00:00,38.5,17.1,0.00,East,87,60.4,-999.0,41,0.11,,,-99.99,,2013-09-23 00:00:00,
2013-09-22 16:05:00,38.5,19.4,0.00,SE,128,26.4,-999.0,45,0.03,,,-99.99,,2013-09-23 00:05:00,
2013-09-22 16:10:00,38.3,20.3,0.00,East,84,46.2,-999.0,47,0.05,,,-99.99,,2013-09-23 00:10:00,
2013-09-22 16:15:00,38.5,20.5,0.00,East,83,50.7,-999.0,48,0.05,,,-99.99,,2013-09-23 00:15:00,
2013-09-22 16:20:00,38.6,21.0,0.00,East,87,26.9,-999.0,48,0.02,,,-99.99,,2013-09-23 00:20:00,
2013-09-22 16:25:00,38.9,21.4,0.00,ENE,71,29.8,-999.0,49,0.03,,,-99.99,,2013-09-23 00:25:00,
2013-09-22 16:30:00,38.8,21.0,0.00,East,86,38.9,-999.0,48,0.00,,,-99.99,,2013-09-23 00:30:00,
2013-09-22 16:35:00,39.0,19.9,0.00,ESE,120,41.8,-999.0,45,0.12,,,-99.99,,2013-09-23 00:35:00,
2013-09-22 16:40:00,39.0,19.8,0.00,ESE,108,52.3,-999.0,45,0.22,,,-99.99,,2013-09-23 00:40:00,
2013-09-22 16:45:00,39.2,20.1,0.00,ESE,104,25.7,-999.0,45,0.17,,,-99.99,,2013-09-23 00:45:00,
2013-09-22 16:50:00,39.3,18.6,0.00,East,79,54.3,-999.0,42,0.07,,,-99.99,,2013-09-23 00:50:00,
2013-09-22 16:55:00,39.4,19.0,0.00,ENE,78,44.2,-999.0,43,0.00,,,-99.99,,2013-09-23 00:55:00,
2013-09-22 17:00:00,39.5,19.8,0.00,ENE,63,36.7,-999.0,44,0.16,,,-99.99,,2013-09-23 01:00:00,
2013-09-22 17:05:00,39.9,19.3,0.00,East,84,55.1,-999.0,43,0.10,,,-99.99,,2013-09-23 01:05:00,
2013-09-22 17:10:00,40.0,19.6,0.00,East,81,36.9,-999.0,43,0.04,,,-99.99,,2013-09-23 01:10:00,
2013-09-22 17:15:00,39.8,19.5,0.00,SE,124,34.5,-999.0,43,0.18,,,-99.99,,2013-09-23 01:15:00,
2013-09-22 17:20:00,39.8,19.1,0.00,East,84,61.3,-999.0,42,0.08,,,-99.99,,2013-09-23 01:20:00,
2013-09-22 17:25:00,39.8,19.3,0.00,East,92,59.1,-999.0,43,0.18,,,-99.99,,2013-09-23 01:25:00,
2013-09-22 17:30:00,39.8,19.3,0.00,East,97,60.1,-999.0,43,0.20,,,-99.99,,2013-09-23 01:30:00,
2013-09-22 17:35:00,39.7,19.6,0.00,ENE,75,53.3,-999.0,44,0.08,,,-99.99,,2013-09-23 01:35:00,
2013-09-22 17:40:00,39.9,19.6,0.00,ENE,62,28.0,-999.0,43,0.04,,,-99.99,,2013-09-23 01:40:00,
2013-09-22 17:45:00,39.7,19.4,0.00,ENE,69,39.1,-999.0,43,0.14,,,-99.99,,2013-09-23 01:45:00,
2013-09-22 17:50:00,39.6,19.4,0.00,ESE,104,56.3,-999.0,43,0.17,,,-99.99,,2013-09-23 01:50:00,
2013-09-22 17:56:00,40.0,20.0,0.00,East,80,43.3,-999.0,44,0.10,,,-99.99,,2013-09-23 01:56:00,
2013-09-22 18:01:00,40.0,20.3,0.00,East,87,28.6,-999.0,44,0.01,,,-99.99,,2013-09-23 02:01:00,
2013-09-22 18:06:00,39.8,20.1,0.00,ENE,74,50.4,-999.0,44,0.04,,,-99.99,,2013-09-23 02:06:00,
2013-09-22 18:11:00,39.9,19.8,0.00,East,86,59.0,-999.0,44,0.16,,,-99.99,,2013-09-23 02:11:00,
2013-09-22 18:16:00,40.1,20.4,0.00,ENE,74,36.7,-999.0,44,0.10,,,-99.99,,2013-09-23 02:16:00,
2013-09-22 18:21:00,40.0,20.1,0.00,East,83,42.7,-999.0,44,0.00,,,-99.99,,2013-09-23 02:21:00,
2013-09-22 18:26:00,40.0,20.5,0.00,ESE,104,40.2,-999.0,45,0.15,,,-99.99,,2013-09-23 02:26:00,
2013-09-22 18:31:00,39.6,20.2,0.00,ESE,107,48.8,-999.0,45,0.17,,,-99.99,,2013-09-23 02:31:00,
2013-09-22 18:36:00,39.6,20.4,0.00,ESE,109,52.0,-999.0,45,0.20,,,-99.99,,2013-09-23 02:36:00,
2013-09-22 18:41:00,39.8,21.0,0.00,East,86,50.9,-999.0,46,0.07,,,-99.99,,2013-09-23 02:41:00,
2013-09-22 18:46:00,39.7,21.4,0.00,East,89,26.5,-999.0,47,0.06,,,-99.99,,2013-09-23 02:46:00,
2013-09-22 18:51:00,39.7,21.5,0.00,East,101,26.9,-999.0,47,0.00,,,-99.99,,2013-09-23 02:51:00,
2013-09-22 18:56:00,39.8,21.7,0.00,NE,48,18.4,-999.0,47,0.00,,,-99.99,,2013-09-23 02:56:00,
2013-09-22 19:01:00,39.7,21.6,0.00,East,100,39.8,-999.0,48,0.00,,,-99.99,,2013-09-23 03:01:00,
2013-09-22 19:06:00,39.7,21.6,0.00,East,86,30.7,-999.0,48,0.08,,,-99.99,,2013-09-23 03:06:00,
2013-09-22 19:11:00,39.7,22.1,0.00,ENE,75,40.0,-999.0,49,0.15,,,-99.99,,2013-09-23 03:11:00,
2013-09-22 19:16:00,39.5,22.1,0.00,ESE,106,35.3,-999.0,49,0.01,,,-99.99,,2013-09-23 03:16:00,
2013-09-22 19:21:00,39.7,22.3,0.00,ENE,61,23.5,-999.0,49,0.02,,,-99.99,,2013-09-23 03:21:00,
2013-09-22 19:26:00,39.6,21.8,0.00,ESE,107,42.8,-999.0,48,0.15,,,-99.99,,2013-09-23 03:26:00,
2013-09-22 19:31:00,39.5,22.2,0.00,East,81,32.8,-999.0,49,0.00,,,-99.99,,2013-09-23 03:31:00,
2013-09-22 19:36:00,39.6,22.0,0.00,ENE,63,35.7,-999.0,48,0.07,,,-99.99,,2013-09-23 03:36:00,
2013-09-22 19:41:00,39.7,22.0,0.00,ESE,103,39.8,-999.0,48,0.11,,,-99.99,,2013-09-23 03:41:00,
2013-09-22 19:47:00,39.8,22.1,0.00,ENE,60,53.2,-999.0,48,0.18,,,-99.99,,2013-09-23 03:47:00,
2013-09-22 19:52:00,39.9,21.9,0.00,East,89,44.6,-999.0,48,0.07,,,-99.99,,2013-09-23 03:52:00,
2013-09-22 19:57:00,39.9,21.4,0.00,East,90,53.3,-999.0,47,0.21,,,-99.99,,2013-09-23 03:57:00,
2013-09-22 20:01:00,39.8,21.5,0.00,East,79,48.0,-999.0,47,0.04,,,-99.99,,2013-09-23 04:01:00,
2013-09-22 20:02:00,39.8,22.0,0.00,East,90,55.2,-999.0,48,0.09,,,-99.99,,2013-09-23 04:02:00,
2013-09-22 20:03:00,39.8,22.1,0.00,ENE,77,36.1,-999.0,48,0.11,,,-99.99,,2013-09-23 04:03:00,
2013-09-22 20:05:00,39.7,22.1,0.00,ENE,70,49.0,-999.0,48,0.02,,,-99.99,,2013-09-23 04:05:00,
2013-09-22 20:10:00,39.6,22.2,0.00,East,84,53.2,-999.0,49,0.18,,,-99.99,,2013-09-23 04:10:00,
2013-09-22 20:12:00,39.5,22.1,0.00,East,86,52.0,-999.0,49,0.08,,,-99.99,,2013-09-23 04:12:00,
2013-09-22 20:17:00,39.8,22.6,0.00,ENE,65,38.8,-999.0,49,0.15,,,-99.99,,2013-09-23 04:17:00,
2013-09-22 20:22:00,39.5,22.2,0.00,East,88,46.2,-999.0,49,0.06,,,-99.99,,2013-09-23 04:22:00,
2013-09-22 20:27:00,39.3,21.8,0.00,East,79,64.2,-999.0,49,0.06,,,-99.99,,2013-09-23 04:27:00,
2013-09-22 20:32:00,39.5,22.4,0.00,ENE,69,56.8,-999.0,49,0.20,,,-99.99,,2013-09-23 04:32:00,
2013-09-22 20:37:00,39.3,22.5,0.00,ESE,115,38.6,-999.0,50,0.16,,,-99.99,,2013-09-23 04:37:00,
2013-09-22 20:42:00,39.5,22.6,0.00,East,79,41.0,-999.0,50,0.05,,,-99.99,,2013-09-23 04:42:00,
2013-09-22 20:47:00,39.5,22.6,0.00,East,82,63.5,-999.0,50,0.05,,,-99.99,,2013-09-23 04:47:00,
2013-09-22 20:52:00,39.3,22.5,0.00,ENE,64,37.6,-999.0,50,0.18,,,-99.99,,2013-09-23 04:52:00,
2013-09-22 20:57:00,39.7,22.8,0.00,East,93,34.2,-999.0,50,0.00,,,-99.99,,2013-09-23 04:57:00,
2013-09-22 21:02:00,39.6,22.4,0.00,ENE,78,36.7,-999.0,49,0.01,,,-99.99,,2013-09-23 05:02:00,
2013-09-22 21:07:00,39.6,22.6,0.00,ENE,78,42.3,-999.0,50,0.02,,,-99.99,,2013-09-23 05:07:00,
2013-09-22 21:12:00,39.6,22.0,0.00,SE,125,40.6,-999.0,48,0.08,,,-99.99,,2013-09-23 05:12:00,
2013-09-22 21:17:00,40.0,22.3,0.00,NE,52,29.5,-999.0,48,0.00,,,-99.99,,2013-09-23 05:17:00,
2013-09-22 21:22:00,39.9,22.4,0.00,ENE,62,37.3,-999.0,49,0.15,,,-99.99,,2013-09-23 05:22:00,
2013-09-22 21:27:00,40.0,22.0,0.00,NE,51,28.2,-999.0,48,0.00,,,-99.99,,2013-09-23 05:27:00,
2013-09-22 21:32:00,40.3,22.6,0.00,ENE,72,17.4,-999.0,48,0.00,,,-99.99,,2013-09-23 05:32:00,
2013-09-22 21:37:00,39.8,22.2,0.00,East,82,53.3,-999.0,49,0.06,,,-99.99,,2013-09-23 05:37:00,
2013-09-22 21:42:00,39.7,23.2,0.00,NE,55,36.1,-999.0,51,0.00,,,-99.99,,2013-09-23 05:42:00,
2013-09-22 21:47:00,39.7,23.4,0.00,ENE,59,14.5,-999.0,51,0.00,,,-99.99,,2013-09-23 05:47:00,
2013-09-22 21:52:00,39.4,23.4,0.00,East,84,17.2,-999.0,52,0.00,,,-99.99,,2013-09-23 05:52:00,
2013-09-22 21:57:00,39.4,23.0,0.00,SE,124,12.7,-999.0,51,0.00,,,-99.99,,2013-09-23 05:57:00,
2013-09-22 22:02:00,39.2,22.9,0.00,ENE,66,44.8,-999.0,51,0.01,,,-99.99,,2013-09-23 06:02:00,
2013-09-22 22:07:00,39.2,22.9,0.00,ENE,57,35.3,-999.0,51,0.02,,,-99.99,,2013-09-23 06:07:00,
2013-09-22 22:12:00,39.5,23.0,0.00,East,90,30.4,-999.0,51,0.02,,,-99.99,,2013-09-23 06:12:00,
2013-09-22 22:17:00,39.4,23.1,0.00,ENE,61,13.9,-999.0,51,0.00,,,-99.99,,2013-09-23 06:17:00,
2013-09-22 22:22:00,39.2,22.8,0.00,East,81,47.8,-999.0,51,0.00,,,-99.99,,2013-09-23 06:22:00,
2013-09-22 22:27:00,39.2,22.5,0.00,East,83,41.7,-999.0,50,0.00,,,-99.99,,2013-09-23 06:27:00,
2013-09-22 22:32:00,39.2,23.1,0.00,SE,124,22.3,-999.0,52,0.00,,,-99.99,,2013-09-23 06:32:00,
2013-09-22 22:37:00,39.0,23.2,0.00,ESE,111,23.7,-999.0,52,0.00,,,-99.99,,2013-09-23 06:37:00,
2013-09-22 22:42:00,39.0,23.4,0.00,East,85,31.1,-999.0,53,0.05,,,-99.99,,2013-09-23 06:42:00,
2013-09-22 22:47:00,39.2,23.2,0.00,East,79,35.8,-999.0,52,0.00,,,-99.99,,2013-09-23 06:47:00,
2013-09-22 22:52:00,39.1,23.6,0.00,East,79,34.7,-999.0,53,0.00,,,-99.99,,2013-09-23 06:52:00,
2013-09-22 22:57:00,39.5,23.4,0.00,ESE,110,27.0,-999.0,52,0.00,,,-99.99,,2013-09-23 06:57:00,
2013-09-22 23:02:00,39.3,23.6,0.00,ENE,68,21.5,-999.0,52,0.00,,,-99.99,,2013-09-23 07:02:00,
2013-09-22 23:07:00,39.2,23.3,0.00,East,82,38.7,-999.0,52,0.00,,,-99.99,,2013-09-23 07:07:00,
2013-09-22 23:12:00,39.2,23.1,0.00,ENE,78,46.7,-999.0,52,0.08,,,-99.99,,2013-09-23 07:12:00,
2013-09-22 23:17:00,39.5,23.5,0.00,East,97,31.7,-999.0,52,0.00,,,-99.99,,2013-09-23 07:17:00,
2013-09-22 23:22:00,39.2,23.9,0.00,East,92,16.7,-999.0,53,0.00,,,-99.99,,2013-09-23 07:22:00,
2013-09-22 23:27:00,39.3,23.9,0.00,East,99,38.8,-999.0,53,0.14,,,-99.99,,2013-09-23 07:27:00,
2013-09-22 23:32:00,39.1,23.8,0.00,NE,48,21.7,-999.0,53,0.00,,,-99.99,,2013-09-23 07:32:00,
2013-09-22 23:37:00,39.3,24.0,0.00,ENE,71,21.5,-999.0,53,0.00,,,-99.99,,2013-09-23 07:37:00,
2013-09-22 23:42:00,39.3,23.5,0.00,ESE,103,44.7,-999.0,52,0.02,,,-99.99,,2013-09-23 07:42:00,
2013-09-22 23:47:00,39.3,23.9,0.00,SW,230,14.0,-999.0,53,0.00,,,-99.99,,2013-09-23 07:47:00,
2013-09-22 23:52:00,39.3,23.8,0.00,East,98,30.5,-999.0,53,0.01,,,-99.99,,2013-09-23 07:52:00,
2013-09-22 23:57:00,39.2,24.0,0.00,East,93,36.5,-999.0,53,0.02,,,-99.99,,2013-09-23 07:57:00,